Terminal Aerodrome Forecast
Issued by NWS

Home | Current Version | Previous Version | Text Only | Print | Product List | Glossary On
Versions: 1 2 3 4 5 6 7 8 9 10 11 12 13
000
FTUS46 KSEW 031700
TAFCLM
TAF
KCLM 031740Z 0318/0418 19005KT P6SM BKN250
     FM032000 09006KT P6SM BKN250
     FM040200 VRB04KT P6SM SKC=

USA.gov is the U.S. government's official web portal to all federal, state and local government web resources and services.